sensor_id;sensor_type;location;lat;lon;timestamp;temperature;humidity
2477;DHT22;1249;51.270;6.756;2023-06-24T00:00:35;24.40;93.50
2477;DHT22;1249;51.270;6.756;2023-06-24T00:03:02;24.40;93.70
2477;DHT22;1249;51.270;6.756;2023-06-24T00:05:28;24.40;93.80
2477;DHT22;1249;51.270;6.756;2023-06-24T00:07:53;24.30;94.00
2477;DHT22;1249;51.270;6.756;2023-06-24T00:10:22;24.30;94.20
2477;DHT22;1249;51.270;6.756;2023-06-24T00:12:47;24.40;94.30
2477;DHT22;1249;51.270;6.756;2023-06-24T00:15:13;24.30;94.50
2477;DHT22;1249;51.270;6.756;2023-06-24T00:17:39;24.30;94.60
2477;DHT22;1249;51.270;6.756;2023-06-24T00:20:06;24.30;94.90
2477;DHT22;1249;51.270;6.756;2023-06-24T00:22:34;24.30;95.00
2477;DHT22;1249;51.270;6.756;2023-06-24T00:24:59;24.30;95.20
2477;DHT22;1249;51.270;6.756;2023-06-24T00:27:25;24.20;95.30
2477;DHT22;1249;51.270;6.756;2023-06-24T00:29:51;24.20;95.50
2477;DHT22;1249;51.270;6.756;2023-06-24T00:32:17;24.20;95.70
2477;DHT22;1249;51.270;6.756;2023-06-24T00:34:42;24.20;95.80
2477;DHT22;1249;51.270;6.756;2023-06-24T00:37:09;24.20;96.00
2477;DHT22;1249;51.270;6.756;2023-06-24T00:39:35;24.10;96.10
2477;DHT22;1249;51.270;6.756;2023-06-24T00:42:01;24.10;96.30
2477;DHT22;1249;51.270;6.756;2023-06-24T00:44:26;24.10;96.40
2477;DHT22;1249;51.270;6.756;2023-06-24T00:46:53;24.10;96.50
2477;DHT22;1249;51.270;6.756;2023-06-24T00:49:19;24.10;96.80
2477;DHT22;1249;51.270;6.756;2023-06-24T00:51:44;24.00;96.80
2477;DHT22;1249;51.270;6.756;2023-06-24T00:54:18;24.00;97.00
2477;DHT22;1249;51.270;6.756;2023-06-24T00:56:45;24.00;97.20
2477;DHT22;1249;51.270;6.756;2023-06-24T00:59:13;24.00;97.40
2477;DHT22;1249;51.270;6.756;2023-06-24T01:01:40;24.00;97.50
2477;DHT22;1249;51.270;6.756;2023-06-24T01:04:07;24.00;97.70
2477;DHT22;1249;51.270;6.756;2023-06-24T01:06:35;24.00;97.80
2477;DHT22;1249;51.270;6.756;2023-06-24T01:09:01;24.00;97.90
2477;DHT22;1249;51.270;6.756;2023-06-24T01:11:28;24.00;98.10
2477;DHT22;1249;51.270;6.756;2023-06-24T01:13:54;24.00;98.20
2477;DHT22;1249;51.270;6.756;2023-06-24T01:17:02;23.90;98.30
2477;DHT22;1249;51.270;6.756;2023-06-24T01:27:54;23.90;98.90
2477;DHT22;1249;51.270;6.756;2023-06-24T01:33:03;23.80;99.30
2477;DHT22;1249;51.270;6.756;2023-06-24T01:35:32;23.80;99.40
2477;DHT22;1249;51.270;6.756;2023-06-24T01:38:03;23.80;99.50
2477;DHT22;1249;51.270;6.756;2023-06-24T01:40:38;23.80;99.60
2477;DHT22;1249;51.270;6.756;2023-06-24T01:43:06;23.80;99.80
2477;DHT22;1249;51.270;6.756;2023-06-24T01:45:37;23.80;99.90
2477;DHT22;1249;51.270;6.756;2023-06-24T01:48:12;23.80;99.90
2477;DHT22;1249;51.270;6.756;2023-06-24T01:50:40;23.80;99.90
2477;DHT22;1249;51.270;6.756;2023-06-24T01:53:08;23.90;99.90
2477;DHT22;1249;51.270;6.756;2023-06-24T01:55:34;23.80;99.90
2477;DHT22;1249;51.270;6.756;2023-06-24T01:58:03;23.80;99.90
2477;DHT22;1249;51.270;6.756;2023-06-24T02:00:32;23.80;99.90
2477;DHT22;1249;51.270;6.756;2023-06-24T02:02:59;23.80;99.90
2477;DHT22;1249;51.270;6.756;2023-06-24T02:05:25;23.80;99.90
2477;DHT22;1249;51.270;6.756;2023-06-24T02:07:52;23.80;99.90
2477;DHT22;1249;51.270;6.756;2023-06-24T02:10:18;23.80;99.90
2477;DHT22;1249;51.270;6.756;2023-06-24T02:12:46;23.80;99.90
2477;DHT22;1249;51.270;6.756;2023-06-24T02:15:13;23.80;99.90
2477;DHT22;1249;51.270;6.756;2023-06-24T02:17:40;23.80;99.90
2477;DHT22;1249;51.270;6.756;2023-06-24T02:20:07;23.70;99.90
2477;DHT22;1249;51.270;6.756;2023-06-24T02:22:35;23.80;99.90
2477;DHT22;1249;51.270;6.756;2023-06-24T02:25:02;23.70;99.90
2477;DHT22;1249;51.270;6.756;2023-06-24T02:27:28;23.70;99.90
2477;DHT22;1249;51.270;6.756;2023-06-24T02:29:55;23.70;99.90
2477;DHT22;1249;51.270;6.756;2023-06-24T02:32:20;23.70;99.90
2477;DHT22;1249;51.270;6.756;2023-06-24T02:34:46;23.70;99.90
2477;DHT22;1249;51.270;6.756;2023-06-24T02:37:12;23.70;99.90
2477;DHT22;1249;51.270;6.756;2023-06-24T02:39:37;23.70;99.90
2477;DHT22;1249;51.270;6.756;2023-06-24T02:42:10;23.70;99.90
2477;DHT22;1249;51.270;6.756;2023-06-24T02:44:35;23.70;99.90
2477;DHT22;1249;51.270;6.756;2023-06-24T02:47:01;23.70;99.90
2477;DHT22;1249;51.270;6.756;2023-06-24T02:49:27;23.60;99.90
2477;DHT22;1249;51.270;6.756;2023-06-24T02:51:53;23.60;99.90
2477;DHT22;1249;51.270;6.756;2023-06-24T02:54:19;23.60;99.90
2477;DHT22;1249;51.270;6.756;2023-06-24T02:56:44;23.60;99.90
2477;DHT22;1249;51.270;6.756;2023-06-24T02:59:10;23.60;99.90
2477;DHT22;1249;51.270;6.756;2023-06-24T03:01:36;23.60;99.90
2477;DHT22;1249;51.270;6.756;2023-06-24T03:04:05;23.50;99.90
2477;DHT22;1249;51.270;6.756;2023-06-24T03:06:32;23.60;99.90
2477;DHT22;1249;51.270;6.756;2023-06-24T03:08:57;23.60;99.90
2477;DHT22;1249;51.270;6.756;2023-06-24T03:11:25;23.60;99.90
2477;DHT22;1249;51.270;6.756;2023-06-24T03:13:51;23.60;99.90
2477;DHT22;1249;51.270;6.756;2023-06-24T03:16:16;23.60;99.90
2477;DHT22;1249;51.270;6.756;2023-06-24T03:18:42;23.60;99.90
2477;DHT22;1249;51.270;6.756;2023-06-24T03:21:10;23.50;99.90
2477;DHT22;1249;51.270;6.756;2023-06-24T03:23:36;23.50;99.90
2477;DHT22;1249;51.270;6.756;2023-06-24T03:26:02;23.60;99.90
2477;DHT22;1249;51.270;6.756;2023-06-24T03:28:31;23.60;99.90
2477;DHT22;1249;51.270;6.756;2023-06-24T03:30:57;23.50;99.90
2477;DHT22;1249;51.270;6.756;2023-06-24T03:33:23;23.50;99.90
2477;DHT22;1249;51.270;6.756;2023-06-24T03:35:50;23.50;99.90
2477;DHT22;1249;51.270;6.756;2023-06-24T03:38:15;23.50;99.90
2477;DHT22;1249;51.270;6.756;2023-06-24T03:40:41;23.50;99.90
2477;DHT22;1249;51.270;6.756;2023-06-24T03:43:06;23.40;99.90
2477;DHT22;1249;51.270;6.756;2023-06-24T03:45:32;23.50;99.90
2477;DHT22;1249;51.270;6.756;2023-06-24T03:47:57;23.50;99.90
2477;DHT22;1249;51.270;6.756;2023-06-24T03:50:23;23.50;99.90
2477;DHT22;1249;51.270;6.756;2023-06-24T03:52:48;23.50;99.90
2477;DHT22;1249;51.270;6.756;2023-06-24T03:55:14;23.50;99.90
2477;DHT22;1249;51.270;6.756;2023-06-24T03:57:40;23.50;99.90
2477;DHT22;1249;51.270;6.756;2023-06-24T04:00:06;23.50;99.90
2477;DHT22;1249;51.270;6.756;2023-06-24T04:02:38;23.50;99.90
2477;DHT22;1249;51.270;6.756;2023-06-24T04:05:04;23.40;99.90
2477;DHT22;1249;51.270;6.756;2023-06-24T04:07:31;23.40;99.90
2477;DHT22;1249;51.270;6.756;2023-06-24T04:09:57;23.50;99.90
2477;DHT22;1249;51.270;6.756;2023-06-24T04:12:23;23.50;99.90
2477;DHT22;1249;51.270;6.756;2023-06-24T04:14:49;23.50;99.90
2477;DHT22;1249;51.270;6.756;2023-06-24T04:17:14;23.40;99.90
2477;DHT22;1249;51.270;6.756;2023-06-24T04:19:40;23.40;99.90
2477;DHT22;1249;51.270;6.756;2023-06-24T04:22:07;23.40;99.90
2477;DHT22;1249;51.270;6.756;2023-06-24T04:24:33;23.50;99.90
2477;DHT22;1249;51.270;6.756;2023-06-24T04:26:58;23.40;99.90
2477;DHT22;1249;51.270;6.756;2023-06-24T04:29:24;23.40;99.90
2477;DHT22;1249;51.270;6.756;2023-06-24T04:31:49;23.40;99.90
2477;DHT22;1249;51.270;6.756;2023-06-24T04:34:15;23.40;99.90
2477;DHT22;1249;51.270;6.756;2023-06-24T04:36:41;23.40;99.90
2477;DHT22;1249;51.270;6.756;2023-06-24T04:39:07;23.50;99.90
2477;DHT22;1249;51.270;6.756;2023-06-24T04:41:33;23.50;99.90
2477;DHT22;1249;51.270;6.756;2023-06-24T04:43:58;23.40;99.90
2477;DHT22;1249;51.270;6.756;2023-06-24T04:46:24;23.50;99.90
2477;DHT22;1249;51.270;6.756;2023-06-24T04:48:49;23.50;99.90
2477;DHT22;1249;51.270;6.756;2023-06-24T04:51:15;23.50;99.90
2477;DHT22;1249;51.270;6.756;2023-06-24T04:53:41;23.50;99.90
2477;DHT22;1249;51.270;6.756;2023-06-24T04:56:06;23.50;99.90
2477;DHT22;1249;51.270;6.756;2023-06-24T04:58:32;23.50;99.90
2477;DHT22;1249;51.270;6.756;2023-06-24T05:00:57;23.60;99.90
2477;DHT22;1249;51.270;6.756;2023-06-24T05:03:24;23.60;99.90
2477;DHT22;1249;51.270;6.756;2023-06-24T05:05:49;23.60;99.90
2477;DHT22;1249;51.270;6.756;2023-06-24T05:08:15;23.60;99.90
2477;DHT22;1249;51.270;6.756;2023-06-24T05:10:41;23.60;99.90
2477;DHT22;1249;51.270;6.756;2023-06-24T05:13:06;23.60;99.90
2477;DHT22;1249;51.270;6.756;2023-06-24T05:15:32;23.60;99.90
2477;DHT22;1249;51.270;6.756;2023-06-24T05:17:57;23.60;99.90
2477;DHT22;1249;51.270;6.756;2023-06-24T05:20:23;23.60;99.90
2477;DHT22;1249;51.270;6.756;2023-06-24T05:22:48;23.60;99.90
2477;DHT22;1249;51.270;6.756;2023-06-24T05:25:14;23.60;99.90
2477;DHT22;1249;51.270;6.756;2023-06-24T05:27:39;23.60;99.90
2477;DHT22;1249;51.270;6.756;2023-06-24T05:30:05;23.60;99.90
2477;DHT22;1249;51.270;6.756;2023-06-24T05:32:31;23.50;99.90
2477;DHT22;1249;51.270;6.756;2023-06-24T05:34:57;23.40;99.90
2477;DHT22;1249;51.270;6.756;2023-06-24T05:37:22;23.40;99.90
2477;DHT22;1249;51.270;6.756;2023-06-24T05:39:48;23.40;99.90
2477;DHT22;1249;51.270;6.756;2023-06-24T05:42:13;23.40;99.90
2477;DHT22;1249;51.270;6.756;2023-06-24T05:44:39;23.30;99.90
2477;DHT22;1249;51.270;6.756;2023-06-24T05:47:05;23.30;99.90
2477;DHT22;1249;51.270;6.756;2023-06-24T05:49:30;23.20;99.90
2477;DHT22;1249;51.270;6.756;2023-06-24T05:51:56;23.20;99.90
2477;DHT22;1249;51.270;6.756;2023-06-24T05:54:23;23.30;99.90
2477;DHT22;1249;51.270;6.756;2023-06-24T05:56:48;23.40;99.90
2477;DHT22;1249;51.270;6.756;2023-06-24T05:59:14;23.60;99.90
2477;DHT22;1249;51.270;6.756;2023-06-24T06:01:39;23.70;99.90
2477;DHT22;1249;51.270;6.756;2023-06-24T06:04:05;23.80;99.90
2477;DHT22;1249;51.270;6.756;2023-06-24T06:06:30;23.90;99.90
2477;DHT22;1249;51.270;6.756;2023-06-24T06:08:57;24.00;99.90
2477;DHT22;1249;51.270;6.756;2023-06-24T06:11:23;24.20;99.90
2477;DHT22;1249;51.270;6.756;2023-06-24T06:13:48;24.20;99.90
2477;DHT22;1249;51.270;6.756;2023-06-24T06:16:14;24.30;99.90
2477;DHT22;1249;51.270;6.756;2023-06-24T06:18:39;24.50;99.90
2477;DHT22;1249;51.270;6.756;2023-06-24T06:21:05;24.60;99.90
2477;DHT22;1249;51.270;6.756;2023-06-24T06:23:30;25.00;99.90
2477;DHT22;1249;51.270;6.756;2023-06-24T06:25:56;25.40;98.90
2477;DHT22;1249;51.270;6.756;2023-06-24T06:28:21;25.70;97.80
2477;DHT22;1249;51.270;6.756;2023-06-24T06:30:47;26.00;96.60
2477;DHT22;1249;51.270;6.756;2023-06-24T06:33:12;26.00;96.00
2477;DHT22;1249;51.270;6.756;2023-06-24T06:35:38;25.80;95.90
2477;DHT22;1249;51.270;6.756;2023-06-24T06:38:04;25.60;96.50
2477;DHT22;1249;51.270;6.756;2023-06-24T06:40:30;25.50;97.20
2477;DHT22;1249;51.270;6.756;2023-06-24T06:42:56;25.50;97.60
2477;DHT22;1249;51.270;6.756;2023-06-24T06:45:21;25.70;97.80
2477;DHT22;1249;51.270;6.756;2023-06-24T06:47:47;26.30;97.30
2477;DHT22;1249;51.270;6.756;2023-06-24T06:50:13;26.70;95.50
2477;DHT22;1249;51.270;6.756;2023-06-24T06:52:38;27.10;94.30
2477;DHT22;1249;51.270;6.756;2023-06-24T06:55:04;27.50;94.90
2477;DHT22;1249;51.270;6.756;2023-06-24T06:57:30;27.50;93.70
2477;DHT22;1249;51.270;6.756;2023-06-24T06:59:57;27.90;92.20
2477;DHT22;1249;51.270;6.756;2023-06-24T07:02:22;28.20;90.90
2477;DHT22;1249;51.270;6.756;2023-06-24T07:04:48;28.30;89.50
2477;DHT22;1249;51.270;6.756;2023-06-24T07:07:16;27.90;88.20
2477;DHT22;1249;51.270;6.756;2023-06-24T07:09:41;27.60;87.40
2477;DHT22;1249;51.270;6.756;2023-06-24T07:12:07;27.30;88.50
2477;DHT22;1249;51.270;6.756;2023-06-24T07:14:33;27.30;90.20
2477;DHT22;1249;51.270;6.756;2023-06-24T07:16:59;27.40;90.00
2477;DHT22;1249;51.270;6.756;2023-06-24T07:19:24;27.90;88.90
2477;DHT22;1249;51.270;6.756;2023-06-24T07:21:51;28.60;86.80
2477;DHT22;1249;51.270;6.756;2023-06-24T07:24:16;29.20;83.40
2477;DHT22;1249;51.270;6.756;2023-06-24T07:26:42;29.80;80.70
2477;DHT22;1249;51.270;6.756;2023-06-24T07:29:07;30.10;78.00
2477;DHT22;1249;51.270;6.756;2023-06-24T07:31:34;30.30;75.60
2477;DHT22;1249;51.270;6.756;2023-06-24T07:33:59;30.20;73.90
2477;DHT22;1249;51.270;6.756;2023-06-24T07:36:25;29.90;72.90
2477;DHT22;1249;51.270;6.756;2023-06-24T07:38:50;29.40;73.20
2477;DHT22;1249;51.270;6.756;2023-06-24T07:41:16;29.70;74.90
2477;DHT22;1249;51.270;6.756;2023-06-24T07:43:42;30.10;73.90
2477;DHT22;1249;51.270;6.756;2023-06-24T07:46:07;30.20;72.30
2477;DHT22;1249;51.270;6.756;2023-06-24T07:48:33;30.30;71.00
2477;DHT22;1249;51.270;6.756;2023-06-24T07:50:58;30.20;69.70
2477;DHT22;1249;51.270;6.756;2023-06-24T07:53:24;30.20;68.80
2477;DHT22;1249;51.270;6.756;2023-06-24T07:55:49;30.10;68.60
2477;DHT22;1249;51.270;6.756;2023-06-24T07:58:15;30.30;68.80
2477;DHT22;1249;51.270;6.756;2023-06-24T08:00:41;30.50;67.70
2477;DHT22;1249;51.270;6.756;2023-06-24T08:03:06;30.70;67.20
2477;DHT22;1249;51.270;6.756;2023-06-24T08:05:32;31.10;66.70
2477;DHT22;1249;51.270;6.756;2023-06-24T08:07:57;31.60;65.70
2477;DHT22;1249;51.270;6.756;2023-06-24T08:10:23;32.00;64.50
2477;DHT22;1249;51.270;6.756;2023-06-24T08:12:48;32.30;63.20
2477;DHT22;1249;51.270;6.756;2023-06-24T08:15:14;32.60;62.10
2477;DHT22;1249;51.270;6.756;2023-06-24T08:17:40;33.00;60.90
2477;DHT22;1249;51.270;6.756;2023-06-24T08:20:06;33.30;59.90
2477;DHT22;1249;51.270;6.756;2023-06-24T08:22:31;33.60;59.20
2477;DHT22;1249;51.270;6.756;2023-06-24T08:24:58;33.80;58.60
2477;DHT22;1249;51.270;6.756;2023-06-24T08:27:24;34.00;58.00
2477;DHT22;1249;51.270;6.756;2023-06-24T08:29:49;34.20;57.70
2477;DHT22;1249;51.270;6.756;2023-06-24T08:32:15;34.40;57.30
2477;DHT22;1249;51.270;6.756;2023-06-24T08:34:40;34.70;56.70
2477;DHT22;1249;51.270;6.756;2023-06-24T08:37:06;34.90;56.30
2477;DHT22;1249;51.270;6.756;2023-06-24T08:39:31;35.10;55.70
2477;DHT22;1249;51.270;6.756;2023-06-24T08:41:57;35.30;55.20
2477;DHT22;1249;51.270;6.756;2023-06-24T08:44:22;35.50;54.80
2477;DHT22;1249;51.270;6.756;2023-06-24T08:46:48;35.60;54.20
2477;DHT22;1249;51.270;6.756;2023-06-24T08:49:20;35.80;53.90
2477;DHT22;1249;51.270;6.756;2023-06-24T08:51:58;35.90;53.40
2477;DHT22;1249;51.270;6.756;2023-06-24T08:54:25;36.00;53.00
2477;DHT22;1249;51.270;6.756;2023-06-24T08:56:52;36.20;52.60
2477;DHT22;1249;51.270;6.756;2023-06-24T08:59:17;36.40;52.30
2477;DHT22;1249;51.270;6.756;2023-06-24T09:01:48;36.50;51.90
2477;DHT22;1249;51.270;6.756;2023-06-24T09:04:14;36.50;51.70
2477;DHT22;1249;51.270;6.756;2023-06-24T09:06:40;36.60;51.40
2477;DHT22;1249;51.270;6.756;2023-06-24T09:09:17;36.80;51.10
2477;DHT22;1249;51.270;6.756;2023-06-24T09:11:56;36.90;50.70
2477;DHT22;1249;51.270;6.756;2023-06-24T09:14:26;37.10;50.70
2477;DHT22;1249;51.270;6.756;2023-06-24T09:16:58;37.20;50.40
2477;DHT22;1249;51.270;6.756;2023-06-24T09:19:25;37.30;50.20
2477;DHT22;1249;51.270;6.756;2023-06-24T09:21:53;37.40;49.90
2477;DHT22;1249;51.270;6.756;2023-06-24T09:24:19;37.60;49.80
2477;DHT22;1249;51.270;6.756;2023-06-24T09:26:44;37.70;49.60
2477;DHT22;1249;51.270;6.756;2023-06-24T09:29:12;38.10;49.50
2477;DHT22;1249;51.270;6.756;2023-06-24T09:31:48;38.30;49.00
2477;DHT22;1249;51.270;6.756;2023-06-24T09:34:14;38.60;48.40
2477;DHT22;1249;51.270;6.756;2023-06-24T09:36:44;38.80;48.20
2477;DHT22;1249;51.270;6.756;2023-06-24T09:39:10;38.90;47.80
2477;DHT22;1249;51.270;6.756;2023-06-24T09:41:36;39.00;47.30
2477;DHT22;1249;51.270;6.756;2023-06-24T09:44:02;39.20;47.10
2477;DHT22;1249;51.270;6.756;2023-06-24T09:46:30;39.30;46.90
2477;DHT22;1249;51.270;6.756;2023-06-24T09:48:55;39.30;46.80
2477;DHT22;1249;51.270;6.756;2023-06-24T09:51:22;39.50;46.70
2477;DHT22;1249;51.270;6.756;2023-06-24T09:53:50;39.60;46.50
2477;DHT22;1249;51.270;6.756;2023-06-24T09:56:18;39.80;46.30
2477;DHT22;1249;51.270;6.756;2023-06-24T09:58:44;40.00;46.00
2477;DHT22;1249;51.270;6.756;2023-06-24T10:01:11;40.20;46.40
2477;DHT22;1249;51.270;6.756;2023-06-24T10:03:38;40.30;45.50
2477;DHT22;1249;51.270;6.756;2023-06-24T10:06:05;40.50;45.10
2477;DHT22;1249;51.270;6.756;2023-06-24T10:08:31;40.70;44.90
2477;DHT22;1249;51.270;6.756;2023-06-24T10:10:57;40.90;44.60
2477;DHT22;1249;51.270;6.756;2023-06-24T10:13:23;41.20;44.60
2477;DHT22;1249;51.270;6.756;2023-06-24T10:15:49;41.30;44.10
2477;DHT22;1249;51.270;6.756;2023-06-24T10:18:35;41.50;43.40
2477;DHT22;1249;51.270;6.756;2023-06-24T10:21:05;41.70;43.50
2477;DHT22;1249;51.270;6.756;2023-06-24T10:26:10;41.90;42.90
2477;DHT22;1249;51.270;6.756;2023-06-24T10:36:56;42.10;40.90
2477;DHT22;1249;51.270;6.756;2023-06-24T10:39:50;42.30;40.20
2477;DHT22;1249;51.270;6.756;2023-06-24T10:44:48;42.60;39.80
2477;DHT22;1249;51.270;6.756;2023-06-24T10:47:14;42.80;39.30
2477;DHT22;1249;51.270;6.756;2023-06-24T10:49:39;43.00;39.60
2477;DHT22;1249;51.270;6.756;2023-06-24T10:52:08;43.10;39.30
2477;DHT22;1249;51.270;6.756;2023-06-24T10:54:35;43.20;39.20
2477;DHT22;1249;51.270;6.756;2023-06-24T10:57:06;43.40;38.60
2477;DHT22;1249;51.270;6.756;2023-06-24T10:59:39;43.60;38.30
2477;DHT22;1249;51.270;6.756;2023-06-24T11:02:05;43.80;38.30
2477;DHT22;1249;51.270;6.756;2023-06-24T11:04:30;44.10;38.40
2477;DHT22;1249;51.270;6.756;2023-06-24T11:06:59;44.10;37.50
2477;DHT22;1249;51.270;6.756;2023-06-24T11:09:26;44.30;37.70
2477;DHT22;1249;51.270;6.756;2023-06-24T11:11:51;44.40;36.70
2477;DHT22;1249;51.270;6.756;2023-06-24T11:14:17;44.50;36.70
2477;DHT22;1249;51.270;6.756;2023-06-24T11:16:47;44.80;37.00
2477;DHT22;1249;51.270;6.756;2023-06-24T11:19:13;45.00;37.10
2477;DHT22;1249;51.270;6.756;2023-06-24T11:21:39;45.20;36.80
2477;DHT22;1249;51.270;6.756;2023-06-24T11:24:05;45.30;37.00
2477;DHT22;1249;51.270;6.756;2023-06-24T11:26:31;45.30;36.30
2477;DHT22;1249;51.270;6.756;2023-06-24T11:28:57;45.50;36.90
2477;DHT22;1249;51.270;6.756;2023-06-24T11:31:25;45.60;36.60
2477;DHT22;1249;51.270;6.756;2023-06-24T11:33:51;45.70;35.90
2477;DHT22;1249;51.270;6.756;2023-06-24T11:36:20;45.80;35.90
2477;DHT22;1249;51.270;6.756;2023-06-24T11:38:46;45.90;35.60
2477;DHT22;1249;51.270;6.756;2023-06-24T11:41:12;46.00;35.70
2477;DHT22;1249;51.270;6.756;2023-06-24T11:43:43;46.30;35.10
2477;DHT22;1249;51.270;6.756;2023-06-24T11:46:08;46.20;34.30
2477;DHT22;1249;51.270;6.756;2023-06-24T11:48:39;46.10;34.40
2477;DHT22;1249;51.270;6.756;2023-06-24T11:51:12;46.20;34.40
2477;DHT22;1249;51.270;6.756;2023-06-24T11:53:43;46.30;34.40
2477;DHT22;1249;51.270;6.756;2023-06-24T11:56:09;46.30;34.60
2477;DHT22;1249;51.270;6.756;2023-06-24T11:58:35;46.50;34.40
2477;DHT22;1249;51.270;6.756;2023-06-24T12:01:01;46.60;34.00
2477;DHT22;1249;51.270;6.756;2023-06-24T12:03:32;46.70;33.10
2477;DHT22;1249;51.270;6.756;2023-06-24T12:05:59;46.60;33.50
2477;DHT22;1249;51.270;6.756;2023-06-24T12:08:25;46.90;33.80
2477;DHT22;1249;51.270;6.756;2023-06-24T12:10:51;47.10;33.80
2477;DHT22;1249;51.270;6.756;2023-06-24T12:13:17;47.30;33.00
2477;DHT22;1249;51.270;6.756;2023-06-24T12:15:42;47.40;32.80
2477;DHT22;1249;51.270;6.756;2023-06-24T12:18:08;47.40;32.10
2477;DHT22;1249;51.270;6.756;2023-06-24T12:20:33;47.60;31.80
2477;DHT22;1249;51.270;6.756;2023-06-24T12:23:01;47.70;31.80
2477;DHT22;1249;51.270;6.756;2023-06-24T12:25:27;48.10;32.00
2477;DHT22;1249;51.270;6.756;2023-06-24T12:27:52;48.40;31.80
2477;DHT22;1249;51.270;6.756;2023-06-24T12:30:18;48.60;31.70
2477;DHT22;1249;51.270;6.756;2023-06-24T12:32:44;48.70;31.00
2477;DHT22;1249;51.270;6.756;2023-06-24T12:35:10;48.80;30.30
2477;DHT22;1249;51.270;6.756;2023-06-24T12:37:36;48.80;29.90
2477;DHT22;1249;51.270;6.756;2023-06-24T12:40:05;48.90;30.00
2477;DHT22;1249;51.270;6.756;2023-06-24T12:42:31;49.00;29.70
2477;DHT22;1249;51.270;6.756;2023-06-24T12:44:56;49.00;29.70
2477;DHT22;1249;51.270;6.756;2023-06-24T12:47:22;48.90;29.80
2477;DHT22;1249;51.270;6.756;2023-06-24T12:49:49;48.90;29.40
2477;DHT22;1249;51.270;6.756;2023-06-24T12:52:15;49.00;29.20
2477;DHT22;1249;51.270;6.756;2023-06-24T12:54:40;49.00;29.60
2477;DHT22;1249;51.270;6.756;2023-06-24T12:57:06;49.00;28.80
2477;DHT22;1249;51.270;6.756;2023-06-24T12:59:32;49.20;29.40
2477;DHT22;1249;51.270;6.756;2023-06-24T13:01:57;49.40;29.40
2477;DHT22;1249;51.270;6.756;2023-06-24T13:04:23;49.40;29.30
2477;DHT22;1249;51.270;6.756;2023-06-24T13:06:52;49.40;29.10
2477;DHT22;1249;51.270;6.756;2023-06-24T13:09:18;49.40;28.10
2477;DHT22;1249;51.270;6.756;2023-06-24T13:11:44;49.10;28.20
2477;DHT22;1249;51.270;6.756;2023-06-24T13:14:10;49.10;28.20
2477;DHT22;1249;51.270;6.756;2023-06-24T13:16:38;49.10;28.00
2477;DHT22;1249;51.270;6.756;2023-06-24T13:19:04;49.10;28.00
2477;DHT22;1249;51.270;6.756;2023-06-24T13:21:30;49.20;28.00
2477;DHT22;1249;51.270;6.756;2023-06-24T13:23:55;49.20;28.30
2477;DHT22;1249;51.270;6.756;2023-06-24T13:26:21;49.30;27.90
2477;DHT22;1249;51.270;6.756;2023-06-24T13:28:47;49.40;28.20
2477;DHT22;1249;51.270;6.756;2023-06-24T13:31:14;49.40;27.80
2477;DHT22;1249;51.270;6.756;2023-06-24T13:33:40;49.40;27.80
2477;DHT22;1249;51.270;6.756;2023-06-24T13:36:07;49.30;27.90
2477;DHT22;1249;51.270;6.756;2023-06-24T13:38:32;49.30;27.90
2477;DHT22;1249;51.270;6.756;2023-06-24T13:40:58;49.40;27.80
2477;DHT22;1249;51.270;6.756;2023-06-24T13:43:24;49.40;26.90
2477;DHT22;1249;51.270;6.756;2023-06-24T13:45:50;49.10;27.80
2477;DHT22;1249;51.270;6.756;2023-06-24T13:48:16;49.10;28.00
2477;DHT22;1249;51.270;6.756;2023-06-24T13:50:41;49.30;28.00
2477;DHT22;1249;51.270;6.756;2023-06-24T13:53:07;49.20;28.00
2477;DHT22;1249;51.270;6.756;2023-06-24T13:55:33;49.20;28.10
2477;DHT22;1249;51.270;6.756;2023-06-24T13:57:58;49.30;28.30
2477;DHT22;1249;51.270;6.756;2023-06-24T14:00:24;49.30;28.60
2477;DHT22;1249;51.270;6.756;2023-06-24T14:02:50;49.20;28.40
2477;DHT22;1249;51.270;6.756;2023-06-24T14:05:15;49.20;28.20
2477;DHT22;1249;51.270;6.756;2023-06-24T14:07:41;49.30;28.20
2477;DHT22;1249;51.270;6.756;2023-06-24T14:10:06;49.30;28.60
2477;DHT22;1249;51.270;6.756;2023-06-24T14:12:32;49.30;28.50
2477;DHT22;1249;51.270;6.756;2023-06-24T14:14:58;49.10;28.20
2477;DHT22;1249;51.270;6.756;2023-06-24T14:17:24;49.00;28.10
2477;DHT22;1249;51.270;6.756;2023-06-24T14:19:50;48.80;27.70
2477;DHT22;1249;51.270;6.756;2023-06-24T14:22:15;48.60;27.60
2477;DHT22;1249;51.270;6.756;2023-06-24T14:24:43;48.20;27.30
2477;DHT22;1249;51.270;6.756;2023-06-24T14:27:08;48.20;27.60
2477;DHT22;1249;51.270;6.756;2023-06-24T14:29:34;48.30;28.00
2477;DHT22;1249;51.270;6.756;2023-06-24T14:32:00;48.20;27.90
2477;DHT22;1249;51.270;6.756;2023-06-24T14:34:25;48.00;26.90
2477;DHT22;1249;51.270;6.756;2023-06-24T14:36:51;47.60;27.40
2477;DHT22;1249;51.270;6.756;2023-06-24T14:39:17;47.80;27.50
2477;DHT22;1249;51.270;6.756;2023-06-24T14:41:43;47.90;27.80
2477;DHT22;1249;51.270;6.756;2023-06-24T14:44:09;47.80;27.80
2477;DHT22;1249;51.270;6.756;2023-06-24T14:46:34;47.80;28.20
2477;DHT22;1249;51.270;6.756;2023-06-24T14:49:00;47.90;28.10
2477;DHT22;1249;51.270;6.756;2023-06-24T14:51:25;47.90;28.30
2477;DHT22;1249;51.270;6.756;2023-06-24T14:53:51;48.00;28.40
2477;DHT22;1249;51.270;6.756;2023-06-24T14:56:16;48.00;28.40
2477;DHT22;1249;51.270;6.756;2023-06-24T14:58:42;48.00;28.40
2477;DHT22;1249;51.270;6.756;2023-06-24T15:01:08;47.90;28.20
2477;DHT22;1249;51.270;6.756;2023-06-24T15:03:33;47.70;27.70
2477;DHT22;1249;51.270;6.756;2023-06-24T15:05:59;47.60;27.70
2477;DHT22;1249;51.270;6.756;2023-06-24T15:08:24;47.60;27.80
2477;DHT22;1249;51.270;6.756;2023-06-24T15:10:52;47.30;27.80
2477;DHT22;1249;51.270;6.756;2023-06-24T15:13:17;47.20;27.70
2477;DHT22;1249;51.270;6.756;2023-06-24T15:15:43;47.00;27.60
2477;DHT22;1249;51.270;6.756;2023-06-24T15:18:09;46.90;27.60
2477;DHT22;1249;51.270;6.756;2023-06-24T15:20:34;46.80;27.50
2477;DHT22;1249;51.270;6.756;2023-06-24T15:23:00;46.70;27.50
2477;DHT22;1249;51.270;6.756;2023-06-24T15:25:25;46.50;27.70
2477;DHT22;1249;51.270;6.756;2023-06-24T15:27:52;46.40;27.60
2477;DHT22;1249;51.270;6.756;2023-06-24T15:30:18;46.30;28.00
2477;DHT22;1249;51.270;6.756;2023-06-24T15:32:44;46.10;27.80
2477;DHT22;1249;51.270;6.756;2023-06-24T15:35:11;46.00;28.00
2477;DHT22;1249;51.270;6.756;2023-06-24T15:37:37;45.80;27.60
2477;DHT22;1249;51.270;6.756;2023-06-24T15:40:03;45.80;27.40
2477;DHT22;1249;51.270;6.756;2023-06-24T15:42:28;45.80;28.00
2477;DHT22;1249;51.270;6.756;2023-06-24T15:44:54;45.60;28.50
2477;DHT22;1249;51.270;6.756;2023-06-24T15:47:19;45.50;28.60
2477;DHT22;1249;51.270;6.756;2023-06-24T15:49:45;45.20;29.00
2477;DHT22;1249;51.270;6.756;2023-06-24T15:52:11;45.10;28.80
2477;DHT22;1249;51.270;6.756;2023-06-24T15:54:36;44.90;29.30
2477;DHT22;1249;51.270;6.756;2023-06-24T15:57:02;44.90;30.10
2477;DHT22;1249;51.270;6.756;2023-06-24T15:59:27;44.80;30.00
2477;DHT22;1249;51.270;6.756;2023-06-24T16:01:53;44.70;29.80
2477;DHT22;1249;51.270;6.756;2023-06-24T16:04:18;44.40;29.40
2477;DHT22;1249;51.270;6.756;2023-06-24T16:06:44;44.20;29.20
2477;DHT22;1249;51.270;6.756;2023-06-24T16:09:09;44.20;28.80
2477;DHT22;1249;51.270;6.756;2023-06-24T16:11:35;44.00;29.90
2477;DHT22;1249;51.270;6.756;2023-06-24T16:14:00;43.90;30.00
2477;DHT22;1249;51.270;6.756;2023-06-24T16:16:26;43.70;30.50
2477;DHT22;1249;51.270;6.756;2023-06-24T16:18:52;43.60;30.00
2477;DHT22;1249;51.270;6.756;2023-06-24T16:21:17;43.40;31.60